sensor_id;sensor_type;location;lat;lon;timestamp;temperature;humidity
25112;DHT22;13092;51.996;4.458;2023-09-19T00:01:08;17.20;99.90
25112;DHT22;13092;51.996;4.458;2023-09-19T00:03:40;17.30;99.90
25112;DHT22;13092;51.996;4.458;2023-09-19T00:06:10;17.50;99.90
25112;DHT22;13092;51.996;4.458;2023-09-19T00:08:40;17.30;99.90
25112;DHT22;13092;51.996;4.458;2023-09-19T00:11:10;17.40;99.90
25112;DHT22;13092;51.996;4.458;2023-09-19T00:13:38;17.50;99.90
25112;DHT22;13092;51.996;4.458;2023-09-19T00:16:09;17.60;99.90
25112;DHT22;13092;51.996;4.458;2023-09-19T00:18:40;17.50;99.90
25112;DHT22;13092;51.996;4.458;2023-09-19T00:21:09;17.50;99.90
25112;DHT22;13092;51.996;4.458;2023-09-19T00:23:38;17.50;99.90
25112;DHT22;13092;51.996;4.458;2023-09-19T00:26:07;17.50;99.90
25112;DHT22;13092;51.996;4.458;2023-09-19T00:28:36;17.50;99.90
25112;DHT22;13092;51.996;4.458;2023-09-19T00:31:04;17.40;99.90
25112;DHT22;13092;51.996;4.458;2023-09-19T00:33:32;17.40;99.90
25112;DHT22;13092;51.996;4.458;2023-09-19T00:36:02;17.30;99.90
25112;DHT22;13092;51.996;4.458;2023-09-19T00:38:32;17.40;99.90
25112;DHT22;13092;51.996;4.458;2023-09-19T00:41:01;17.40;99.90
25112;DHT22;13092;51.996;4.458;2023-09-19T00:43:29;17.40;99.90
25112;DHT22;13092;51.996;4.458;2023-09-19T00:46:02;17.40;99.90
25112;DHT22;13092;51.996;4.458;2023-09-19T00:48:31;17.40;99.90
25112;DHT22;13092;51.996;4.458;2023-09-19T00:51:06;17.30;99.90
25112;DHT22;13092;51.996;4.458;2023-09-19T00:53:34;17.30;99.90
25112;DHT22;13092;51.996;4.458;2023-09-19T00:56:03;17.20;99.90
25112;DHT22;13092;51.996;4.458;2023-09-19T00:58:34;17.20;99.90
25112;DHT22;13092;51.996;4.458;2023-09-19T01:01:04;17.10;99.90
25112;DHT22;13092;51.996;4.458;2023-09-19T01:03:34;17.10;99.90
25112;DHT22;13092;51.996;4.458;2023-09-19T01:06:03;17.10;99.90
25112;DHT22;13092;51.996;4.458;2023-09-19T01:08:33;17.20;99.90
25112;DHT22;13092;51.996;4.458;2023-09-19T01:11:09;17.00;99.90
25112;DHT22;13092;51.996;4.458;2023-09-19T01:13:56;17.00;99.90
25112;DHT22;13092;51.996;4.458;2023-09-19T01:16:32;17.00;99.90
25112;DHT22;13092;51.996;4.458;2023-09-19T01:19:22;17.10;99.90
25112;DHT22;13092;51.996;4.458;2023-09-19T01:22:00;16.90;99.90
25112;DHT22;13092;51.996;4.458;2023-09-19T01:25:13;16.90;99.90
25112;DHT22;13092;51.996;4.458;2023-09-19T01:28:06;16.90;99.90
25112;DHT22;13092;51.996;4.458;2023-09-19T01:30:41;16.90;99.90
25112;DHT22;13092;51.996;4.458;2023-09-19T01:33:11;16.90;99.90
25112;DHT22;13092;51.996;4.458;2023-09-19T01:35:39;16.90;99.90
25112;DHT22;13092;51.996;4.458;2023-09-19T01:38:07;16.90;99.90
25112;DHT22;13092;51.996;4.458;2023-09-19T01:40:42;16.90;99.90
25112;DHT22;13092;51.996;4.458;2023-09-19T01:43:15;16.90;99.90
25112;DHT22;13092;51.996;4.458;2023-09-19T01:45:57;16.90;99.90
25112;DHT22;13092;51.996;4.458;2023-09-19T01:48:34;16.90;99.90
25112;DHT22;13092;51.996;4.458;2023-09-19T01:51:06;16.90;99.90
25112;DHT22;13092;51.996;4.458;2023-09-19T01:53:41;16.80;99.90
25112;DHT22;13092;51.996;4.458;2023-09-19T01:56:19;16.70;99.90
25112;DHT22;13092;51.996;4.458;2023-09-19T01:58:53;16.70;99.90
25112;DHT22;13092;51.996;4.458;2023-09-19T02:01:26;16.50;99.90
25112;DHT22;13092;51.996;4.458;2023-09-19T02:03:55;16.60;99.90
25112;DHT22;13092;51.996;4.458;2023-09-19T02:06:24;16.60;99.90
25112;DHT22;13092;51.996;4.458;2023-09-19T02:08:53;16.50;99.90
25112;DHT22;13092;51.996;4.458;2023-09-19T02:11:22;16.60;99.90
25112;DHT22;13092;51.996;4.458;2023-09-19T02:13:50;16.50;99.90
25112;DHT22;13092;51.996;4.458;2023-09-19T02:16:21;16.40;99.90
25112;DHT22;13092;51.996;4.458;2023-09-19T02:18:51;16.40;99.90
25112;DHT22;13092;51.996;4.458;2023-09-19T02:21:19;16.40;99.90
25112;DHT22;13092;51.996;4.458;2023-09-19T02:23:48;16.40;99.90
25112;DHT22;13092;51.996;4.458;2023-09-19T02:26:18;16.50;99.90
25112;DHT22;13092;51.996;4.458;2023-09-19T02:28:47;16.40;99.90
25112;DHT22;13092;51.996;4.458;2023-09-19T02:31:15;16.40;99.90
25112;DHT22;13092;51.996;4.458;2023-09-19T02:33:44;16.40;99.90
25112;DHT22;13092;51.996;4.458;2023-09-19T02:36:14;16.50;99.90
25112;DHT22;13092;51.996;4.458;2023-09-19T02:38:44;16.50;99.90
25112;DHT22;13092;51.996;4.458;2023-09-19T02:41:12;16.50;99.90
25112;DHT22;13092;51.996;4.458;2023-09-19T02:43:40;16.50;99.90
25112;DHT22;13092;51.996;4.458;2023-09-19T02:46:09;16.50;99.90
25112;DHT22;13092;51.996;4.458;2023-09-19T02:48:38;16.50;99.90
25112;DHT22;13092;51.996;4.458;2023-09-19T02:51:09;16.50;99.90
25112;DHT22;13092;51.996;4.458;2023-09-19T02:53:38;16.50;99.90
25112;DHT22;13092;51.996;4.458;2023-09-19T02:56:07;16.50;99.90
25112;DHT22;13092;51.996;4.458;2023-09-19T02:58:36;16.50;99.90
25112;DHT22;13092;51.996;4.458;2023-09-19T03:01:09;16.60;99.90
25112;DHT22;13092;51.996;4.458;2023-09-19T03:03:38;16.60;99.90
25112;DHT22;13092;51.996;4.458;2023-09-19T03:06:07;16.60;99.90
25112;DHT22;13092;51.996;4.458;2023-09-19T03:08:37;16.60;99.90
25112;DHT22;13092;51.996;4.458;2023-09-19T03:11:06;16.70;99.90
25112;DHT22;13092;51.996;4.458;2023-09-19T03:13:38;16.70;99.90
25112;DHT22;13092;51.996;4.458;2023-09-19T03:16:07;16.80;99.90
25112;DHT22;13092;51.996;4.458;2023-09-19T03:18:35;16.70;99.90
25112;DHT22;13092;51.996;4.458;2023-09-19T03:21:03;16.90;99.90
25112;DHT22;13092;51.996;4.458;2023-09-19T03:23:31;16.80;99.90
25112;DHT22;13092;51.996;4.458;2023-09-19T03:26:01;16.80;99.90
25112;DHT22;13092;51.996;4.458;2023-09-19T03:28:33;16.90;99.90
25112;DHT22;13092;51.996;4.458;2023-09-19T03:31:02;16.90;99.90
25112;DHT22;13092;51.996;4.458;2023-09-19T03:33:30;16.80;99.90
25112;DHT22;13092;51.996;4.458;2023-09-19T03:36:00;16.80;99.90
25112;DHT22;13092;51.996;4.458;2023-09-19T03:38:31;16.80;99.90
25112;DHT22;13092;51.996;4.458;2023-09-19T03:41:02;16.80;99.90
25112;DHT22;13092;51.996;4.458;2023-09-19T03:43:31;16.80;99.90
25112;DHT22;13092;51.996;4.458;2023-09-19T03:46:01;16.80;99.90
25112;DHT22;13092;51.996;4.458;2023-09-19T03:48:31;16.80;99.90
25112;DHT22;13092;51.996;4.458;2023-09-19T03:51:00;16.80;99.90
25112;DHT22;13092;51.996;4.458;2023-09-19T03:53:32;16.80;99.90
25112;DHT22;13092;51.996;4.458;2023-09-19T03:56:04;16.80;99.90
25112;DHT22;13092;51.996;4.458;2023-09-19T03:58:32;16.70;99.90
25112;DHT22;13092;51.996;4.458;2023-09-19T04:01:04;16.70;99.90
25112;DHT22;13092;51.996;4.458;2023-09-19T04:03:33;16.60;99.90
25112;DHT22;13092;51.996;4.458;2023-09-19T04:06:13;16.70;99.90
25112;DHT22;13092;51.996;4.458;2023-09-19T04:08:43;16.70;99.90
25112;DHT22;13092;51.996;4.458;2023-09-19T04:11:12;16.70;99.90
25112;DHT22;13092;51.996;4.458;2023-09-19T04:13:41;16.70;99.90
25112;DHT22;13092;51.996;4.458;2023-09-19T04:16:09;16.60;99.90
25112;DHT22;13092;51.996;4.458;2023-09-19T04:18:38;16.60;99.90
25112;DHT22;13092;51.996;4.458;2023-09-19T04:21:07;16.60;99.90
25112;DHT22;13092;51.996;4.458;2023-09-19T04:23:35;16.60;99.90
25112;DHT22;13092;51.996;4.458;2023-09-19T04:26:03;16.70;99.90
25112;DHT22;13092;51.996;4.458;2023-09-19T04:28:34;16.70;99.90
25112;DHT22;13092;51.996;4.458;2023-09-19T04:31:05;16.60;99.90
25112;DHT22;13092;51.996;4.458;2023-09-19T04:33:34;16.50;99.90
25112;DHT22;13092;51.996;4.458;2023-09-19T04:36:03;16.50;99.90
25112;DHT22;13092;51.996;4.458;2023-09-19T04:38:54;16.50;99.90
25112;DHT22;13092;51.996;4.458;2023-09-19T04:41:22;16.50;99.90
25112;DHT22;13092;51.996;4.458;2023-09-19T04:43:52;16.40;99.90
25112;DHT22;13092;51.996;4.458;2023-09-19T04:46:21;16.50;99.90
25112;DHT22;13092;51.996;4.458;2023-09-19T04:48:50;16.50;99.90
25112;DHT22;13092;51.996;4.458;2023-09-19T04:51:18;16.60;99.90
25112;DHT22;13092;51.996;4.458;2023-09-19T04:53:47;16.50;99.90
25112;DHT22;13092;51.996;4.458;2023-09-19T04:56:16;16.40;99.90
25112;DHT22;13092;51.996;4.458;2023-09-19T04:58:44;16.40;99.90
25112;DHT22;13092;51.996;4.458;2023-09-19T05:01:14;16.40;99.90
25112;DHT22;13092;51.996;4.458;2023-09-19T05:03:43;16.40;99.90
25112;DHT22;13092;51.996;4.458;2023-09-19T05:06:12;16.50;99.90
25112;DHT22;13092;51.996;4.458;2023-09-19T05:08:40;16.50;99.90
25112;DHT22;13092;51.996;4.458;2023-09-19T05:11:08;16.50;99.90
25112;DHT22;13092;51.996;4.458;2023-09-19T05:13:37;16.50;99.90
25112;DHT22;13092;51.996;4.458;2023-09-19T05:16:05;16.60;99.90
25112;DHT22;13092;51.996;4.458;2023-09-19T05:18:38;16.50;99.90
25112;DHT22;13092;51.996;4.458;2023-09-19T05:21:07;16.50;99.90
25112;DHT22;13092;51.996;4.458;2023-09-19T05:23:35;16.60;99.90
25112;DHT22;13092;51.996;4.458;2023-09-19T05:26:04;16.70;99.90
25112;DHT22;13092;51.996;4.458;2023-09-19T05:28:32;16.50;99.90
25112;DHT22;13092;51.996;4.458;2023-09-19T05:31:01;16.50;99.90
25112;DHT22;13092;51.996;4.458;2023-09-19T05:33:29;16.60;99.90
25112;DHT22;13092;51.996;4.458;2023-09-19T05:36:00;16.50;99.90
25112;DHT22;13092;51.996;4.458;2023-09-19T05:38:32;16.70;99.90
25112;DHT22;13092;51.996;4.458;2023-09-19T05:41:00;16.50;99.90
25112;DHT22;13092;51.996;4.458;2023-09-19T05:43:31;16.60;99.90
25112;DHT22;13092;51.996;4.458;2023-09-19T05:46:03;16.50;99.90
25112;DHT22;13092;51.996;4.458;2023-09-19T05:48:31;16.60;99.90
25112;DHT22;13092;51.996;4.458;2023-09-19T05:51:01;16.60;99.90
25112;DHT22;13092;51.996;4.458;2023-09-19T05:53:32;16.60;99.90
25112;DHT22;13092;51.996;4.458;2023-09-19T05:56:00;16.60;99.90
25112;DHT22;13092;51.996;4.458;2023-09-19T05:58:28;16.60;99.90
25112;DHT22;13092;51.996;4.458;2023-09-19T06:00:57;16.60;99.90
25112;DHT22;13092;51.996;4.458;2023-09-19T06:03:26;16.60;99.90
25112;DHT22;13092;51.996;4.458;2023-09-19T06:05:56;16.60;99.90
25112;DHT22;13092;51.996;4.458;2023-09-19T06:08:25;16.60;99.90
25112;DHT22;13092;51.996;4.458;2023-09-19T06:10:54;16.70;99.90
25112;DHT22;13092;51.996;4.458;2023-09-19T06:13:22;16.70;99.90
25112;DHT22;13092;51.996;4.458;2023-09-19T06:15:54;16.80;99.90
25112;DHT22;13092;51.996;4.458;2023-09-19T06:18:23;16.80;99.90
25112;DHT22;13092;51.996;4.458;2023-09-19T06:20:53;16.80;99.90
25112;DHT22;13092;51.996;4.458;2023-09-19T06:23:21;16.80;99.90
25112;DHT22;13092;51.996;4.458;2023-09-19T06:25:52;16.80;99.90
25112;DHT22;13092;51.996;4.458;2023-09-19T06:28:21;16.80;99.90
25112;DHT22;13092;51.996;4.458;2023-09-19T06:30:51;16.70;99.90
25112;DHT22;13092;51.996;4.458;2023-09-19T06:33:20;16.80;99.90
25112;DHT22;13092;51.996;4.458;2023-09-19T06:35:48;16.80;99.90
25112;DHT22;13092;51.996;4.458;2023-09-19T06:38:26;16.80;99.90
25112;DHT22;13092;51.996;4.458;2023-09-19T06:40:56;16.80;99.90
25112;DHT22;13092;51.996;4.458;2023-09-19T06:43:24;16.80;99.90
25112;DHT22;13092;51.996;4.458;2023-09-19T06:45:53;16.90;99.90
25112;DHT22;13092;51.996;4.458;2023-09-19T06:48:25;16.80;99.90
25112;DHT22;13092;51.996;4.458;2023-09-19T06:50:53;16.90;99.90
25112;DHT22;13092;51.996;4.458;2023-09-19T06:53:22;17.00;99.90
25112;DHT22;13092;51.996;4.458;2023-09-19T06:55:51;16.90;99.90
25112;DHT22;13092;51.996;4.458;2023-09-19T06:58:21;17.00;99.90
25112;DHT22;13092;51.996;4.458;2023-09-19T07:00:49;17.00;99.90
25112;DHT22;13092;51.996;4.458;2023-09-19T07:03:18;17.00;99.90
25112;DHT22;13092;51.996;4.458;2023-09-19T07:05:48;17.00;99.90
25112;DHT22;13092;51.996;4.458;2023-09-19T07:08:16;17.00;99.90
25112;DHT22;13092;51.996;4.458;2023-09-19T07:10:46;17.00;99.90
25112;DHT22;13092;51.996;4.458;2023-09-19T07:13:16;17.00;99.90
25112;DHT22;13092;51.996;4.458;2023-09-19T07:15:46;17.00;99.90
25112;DHT22;13092;51.996;4.458;2023-09-19T07:18:15;17.00;99.90
25112;DHT22;13092;51.996;4.458;2023-09-19T07:20:44;17.10;99.90
25112;DHT22;13092;51.996;4.458;2023-09-19T07:23:16;17.20;99.90
25112;DHT22;13092;51.996;4.458;2023-09-19T07:25:45;17.20;99.90
25112;DHT22;13092;51.996;4.458;2023-09-19T07:28:16;17.20;99.90
25112;DHT22;13092;51.996;4.458;2023-09-19T07:30:45;17.20;99.90
25112;DHT22;13092;51.996;4.458;2023-09-19T07:33:13;17.30;99.90
25112;DHT22;13092;51.996;4.458;2023-09-19T07:35:45;17.30;99.90
25112;DHT22;13092;51.996;4.458;2023-09-19T07:38:14;17.40;99.90
25112;DHT22;13092;51.996;4.458;2023-09-19T07:40:42;17.40;99.90
25112;DHT22;13092;51.996;4.458;2023-09-19T07:43:10;17.30;99.90
25112;DHT22;13092;51.996;4.458;2023-09-19T07:45:39;17.40;99.90
25112;DHT22;13092;51.996;4.458;2023-09-19T07:48:08;17.30;99.90
25112;DHT22;13092;51.996;4.458;2023-09-19T07:50:41;17.40;99.90
25112;DHT22;13092;51.996;4.458;2023-09-19T07:53:11;17.40;99.90
25112;DHT22;13092;51.996;4.458;2023-09-19T07:55:40;17.40;99.90
25112;DHT22;13092;51.996;4.458;2023-09-19T07:58:09;17.50;99.90
25112;DHT22;13092;51.996;4.458;2023-09-19T08:00:37;17.50;99.90
25112;DHT22;13092;51.996;4.458;2023-09-19T08:03:07;17.60;99.90
25112;DHT22;13092;51.996;4.458;2023-09-19T08:05:44;17.60;99.90
25112;DHT22;13092;51.996;4.458;2023-09-19T08:08:13;17.70;99.90
25112;DHT22;13092;51.996;4.458;2023-09-19T08:10:42;17.80;99.90
25112;DHT22;13092;51.996;4.458;2023-09-19T08:13:13;17.80;99.90
25112;DHT22;13092;51.996;4.458;2023-09-19T08:15:43;17.80;99.90
25112;DHT22;13092;51.996;4.458;2023-09-19T08:18:14;17.90;99.90
25112;DHT22;13092;51.996;4.458;2023-09-19T08:20:42;17.90;99.90
25112;DHT22;13092;51.996;4.458;2023-09-19T08:23:13;17.90;99.90
25112;DHT22;13092;51.996;4.458;2023-09-19T08:25:41;18.00;99.90
25112;DHT22;13092;51.996;4.458;2023-09-19T08:28:09;17.90;99.90
25112;DHT22;13092;51.996;4.458;2023-09-19T08:30:39;18.00;99.90
25112;DHT22;13092;51.996;4.458;2023-09-19T08:33:08;18.10;99.90
25112;DHT22;13092;51.996;4.458;2023-09-19T08:35:38;18.00;99.90
25112;DHT22;13092;51.996;4.458;2023-09-19T08:38:10;18.10;99.90
25112;DHT22;13092;51.996;4.458;2023-09-19T08:40:40;18.10;99.90
25112;DHT22;13092;51.996;4.458;2023-09-19T08:43:09;18.10;99.90
25112;DHT22;13092;51.996;4.458;2023-09-19T08:45:37;18.10;99.90
25112;DHT22;13092;51.996;4.458;2023-09-19T08:48:23;18.20;99.90
25112;DHT22;13092;51.996;4.458;2023-09-19T08:50:57;18.20;99.90
25112;DHT22;13092;51.996;4.458;2023-09-19T08:53:35;18.10;99.90
25112;DHT22;13092;51.996;4.458;2023-09-19T08:56:09;18.10;99.90
25112;DHT22;13092;51.996;4.458;2023-09-19T08:58:44;18.20;99.90
25112;DHT22;13092;51.996;4.458;2023-09-19T09:01:15;18.30;99.90
25112;DHT22;13092;51.996;4.458;2023-09-19T09:03:45;18.30;99.90
25112;DHT22;13092;51.996;4.458;2023-09-19T09:06:17;18.40;99.90
25112;DHT22;13092;51.996;4.458;2023-09-19T09:08:47;18.40;99.90
25112;DHT22;13092;51.996;4.458;2023-09-19T09:11:16;18.40;99.90
25112;DHT22;13092;51.996;4.458;2023-09-19T09:13:45;18.60;99.90
25112;DHT22;13092;51.996;4.458;2023-09-19T09:16:13;18.60;99.90
25112;DHT22;13092;51.996;4.458;2023-09-19T09:18:45;18.70;99.90
25112;DHT22;13092;51.996;4.458;2023-09-19T09:21:22;18.70;99.90
25112;DHT22;13092;51.996;4.458;2023-09-19T09:23:52;18.80;99.90
25112;DHT22;13092;51.996;4.458;2023-09-19T09:26:41;18.90;99.90
25112;DHT22;13092;51.996;4.458;2023-09-19T09:29:10;19.00;99.90
25112;DHT22;13092;51.996;4.458;2023-09-19T09:31:38;18.90;99.90
25112;DHT22;13092;51.996;4.458;2023-09-19T09:34:08;18.90;99.90
25112;DHT22;13092;51.996;4.458;2023-09-19T09:36:47;19.00;99.90
25112;DHT22;13092;51.996;4.458;2023-09-19T09:39:29;18.90;99.90
25112;DHT22;13092;51.996;4.458;2023-09-19T09:41:58;19.10;99.90
25112;DHT22;13092;51.996;4.458;2023-09-19T09:44:33;19.20;99.90
25112;DHT22;13092;51.996;4.458;2023-09-19T09:47:02;19.20;99.90
25112;DHT22;13092;51.996;4.458;2023-09-19T09:49:48;19.30;99.90
25112;DHT22;13092;51.996;4.458;2023-09-19T09:52:45;19.20;99.90
25112;DHT22;13092;51.996;4.458;2023-09-19T09:55:14;19.30;99.90
25112;DHT22;13092;51.996;4.458;2023-09-19T09:57:42;19.40;99.90
25112;DHT22;13092;51.996;4.458;2023-09-19T10:00:11;19.40;99.90
25112;DHT22;13092;51.996;4.458;2023-09-19T10:02:47;19.50;99.90
25112;DHT22;13092;51.996;4.458;2023-09-19T10:05:17;19.50;99.90
25112;DHT22;13092;51.996;4.458;2023-09-19T10:08:10;19.60;99.90
25112;DHT22;13092;51.996;4.458;2023-09-19T10:10:40;19.60;99.90
25112;DHT22;13092;51.996;4.458;2023-09-19T10:13:21;19.70;99.90
25112;DHT22;13092;51.996;4.458;2023-09-19T10:15:51;19.60;99.90
25112;DHT22;13092;51.996;4.458;2023-09-19T10:18:23;19.70;99.90
25112;DHT22;13092;51.996;4.458;2023-09-19T10:20:52;19.70;99.90
25112;DHT22;13092;51.996;4.458;2023-09-19T10:23:23;19.70;99.90
25112;DHT22;13092;51.996;4.458;2023-09-19T10:25:53;19.80;99.90
25112;DHT22;13092;51.996;4.458;2023-09-19T10:28:22;19.80;99.90
25112;DHT22;13092;51.996;4.458;2023-09-19T10:30:51;19.90;99.90
25112;DHT22;13092;51.996;4.458;2023-09-19T10:33:22;20.00;99.90
25112;DHT22;13092;51.996;4.458;2023-09-19T10:35:53;20.10;99.90
25112;DHT22;13092;51.996;4.458;2023-09-19T10:38:25;20.10;99.90
25112;DHT22;13092;51.996;4.458;2023-09-19T10:40:56;20.10;99.90
25112;DHT22;13092;51.996;4.458;2023-09-19T10:43:30;20.10;99.90
25112;DHT22;13092;51.996;4.458;2023-09-19T10:46:06;20.10;99.90
25112;DHT22;13092;51.996;4.458;2023-09-19T10:48:43;20.10;99.90
25112;DHT22;13092;51.996;4.458;2023-09-19T10:51:16;20.10;99.90
25112;DHT22;13092;51.996;4.458;2023-09-19T10:53:51;20.20;99.90
25112;DHT22;13092;51.996;4.458;2023-09-19T10:56:33;20.20;99.90
25112;DHT22;13092;51.996;4.458;2023-09-19T10:59:08;20.20;99.90
25112;DHT22;13092;51.996;4.458;2023-09-19T11:01:42;20.30;99.90
25112;DHT22;13092;51.996;4.458;2023-09-19T11:04:25;20.30;99.90
25112;DHT22;13092;51.996;4.458;2023-09-19T11:07:03;20.40;99.90
25112;DHT22;13092;51.996;4.458;2023-09-19T11:09:47;20.40;99.90
25112;DHT22;13092;51.996;4.458;2023-09-19T11:12:49;20.30;99.90
25112;DHT22;13092;51.996;4.458;2023-09-19T11:18:53;20.20;99.90
25112;DHT22;13092;51.996;4.458;2023-09-19T11:21:52;20.20;99.90
25112;DHT22;13092;51.996;4.458;2023-09-19T11:24:28;20.20;99.90
25112;DHT22;13092;51.996;4.458;2023-09-19T11:27:15;20.10;99.90
25112;DHT22;13092;51.996;4.458;2023-09-19T11:29:45;20.10;99.90
25112;DHT22;13092;51.996;4.458;2023-09-19T11:32:14;20.20;99.90
25112;DHT22;13092;51.996;4.458;2023-09-19T11:34:48;20.20;99.90
25112;DHT22;13092;51.996;4.458;2023-09-19T11:40:45;20.10;99.90
25112;DHT22;13092;51.996;4.458;2023-09-19T11:43:34;19.90;99.90
25112;DHT22;13092;51.996;4.458;2023-09-19T11:46:06;20.00;99.90
25112;DHT22;13092;51.996;4.458;2023-09-19T11:48:35;19.90;99.90
25112;DHT22;13092;51.996;4.458;2023-09-19T11:51:12;19.80;99.90
25112;DHT22;13092;51.996;4.458;2023-09-19T11:53:46;19.90;99.90
25112;DHT22;13092;51.996;4.458;2023-09-19T11:56:17;20.10;99.90
25112;DHT22;13092;51.996;4.458;2023-09-19T11:58:49;20.20;99.90
25112;DHT22;13092;51.996;4.458;2023-09-19T12:01:22;20.30;99.90
25112;DHT22;13092;51.996;4.458;2023-09-19T12:03:56;20.50;99.90
25112;DHT22;13092;51.996;4.458;2023-09-19T12:06:26;20.60;99.90
25112;DHT22;13092;51.996;4.458;2023-09-19T12:08:56;20.60;99.90
25112;DHT22;13092;51.996;4.458;2023-09-19T12:11:29;20.70;99.90
25112;DHT22;13092;51.996;4.458;2023-09-19T12:14:02;20.80;99.90
25112;DHT22;13092;51.996;4.458;2023-09-19T12:16:31;20.80;99.90
25112;DHT22;13092;51.996;4.458;2023-09-19T12:19:19;20.90;99.90
25112;DHT22;13092;51.996;4.458;2023-09-19T12:21:56;20.90;99.90
25112;DHT22;13092;51.996;4.458;2023-09-19T12:24:27;21.00;99.90
25112;DHT22;13092;51.996;4.458;2023-09-19T12:27:01;20.80;99.90
25112;DHT22;13092;51.996;4.458;2023-09-19T12:29:42;20.80;99.90
25112;DHT22;13092;51.996;4.458;2023-09-19T12:32:10;20.70;99.90
25112;DHT22;13092;51.996;4.458;2023-09-19T12:34:39;20.70;99.90
25112;DHT22;13092;51.996;4.458;2023-09-19T12:37:11;20.60;99.90
25112;DHT22;13092;51.996;4.458;2023-09-19T12:39:39;20.50;99.90
25112;DHT22;13092;51.996;4.458;2023-09-19T12:42:10;20.60;99.90
25112;DHT22;13092;51.996;4.458;2023-09-19T12:44:43;20.70;99.90
25112;DHT22;13092;51.996;4.458;2023-09-19T12:47:13;20.70;99.90
25112;DHT22;13092;51.996;4.458;2023-09-19T12:50:05;20.80;99.90
25112;DHT22;13092;51.996;4.458;2023-09-19T12:52:35;20.80;99.90
25112;DHT22;13092;51.996;4.458;2023-09-19T12:55:04;20.80;99.90
25112;DHT22;13092;51.996;4.458;2023-09-19T12:57:34;20.80;99.90
25112;DHT22;13092;51.996;4.458;2023-09-19T13:00:05;20.70;99.90
25112;DHT22;13092;51.996;4.458;2023-09-19T13:02:34;20.70;99.90
25112;DHT22;13092;51.996;4.458;2023-09-19T13:05:03;20.60;99.90
25112;DHT22;13092;51.996;4.458;2023-09-19T13:07:40;20.60;99.90
25112;DHT22;13092;51.996;4.458;2023-09-19T13:10:11;20.50;99.90
25112;DHT22;13092;51.996;4.458;2023-09-19T13:12:43;20.50;99.90
25112;DHT22;13092;51.996;4.458;2023-09-19T13:15:15;20.40;99.90
25112;DHT22;13092;51.996;4.458;2023-09-19T13:17:47;20.40;99.90
25112;DHT22;13092;51.996;4.458;2023-09-19T13:20:23;20.20;99.90
25112;DHT22;13092;51.996;4.458;2023-09-19T13:22:55;20.30;99.90
25112;DHT22;13092;51.996;4.458;2023-09-19T13:25:26;20.30;99.90
25112;DHT22;13092;51.996;4.458;2023-09-19T13:27:57;20.30;99.90
25112;DHT22;13092;51.996;4.458;2023-09-19T13:30:28;20.40;99.90
25112;DHT22;13092;51.996;4.458;2023-09-19T13:33:05;20.30;99.90
25112;DHT22;13092;51.996;4.458;2023-09-19T13:35:34;20.30;99.90
25112;DHT22;13092;51.996;4.458;2023-09-19T13:38:06;20.30;99.90
25112;DHT22;13092;51.996;4.458;2023-09-19T13:40:36;20.30;99.90
25112;DHT22;13092;51.996;4.458;2023-09-19T13:43:09;20.20;99.90
25112;DHT22;13092;51.996;4.458;2023-09-19T13:45:39;20.20;99.90
25112;DHT22;13092;51.996;4.458;2023-09-19T13:48:09;20.10;99.90
25112;DHT22;13092;51.996;4.458;2023-09-19T13:50:38;20.10;99.90
25112;DHT22;13092;51.996;4.458;2023-09-19T13:53:09;20.00;99.90
25112;DHT22;13092;51.996;4.458;2023-09-19T13:55:38;20.10;99.90
25112;DHT22;13092;51.996;4.458;2023-09-19T13:58:07;20.00;99.90
25112;DHT22;13092;51.996;4.458;2023-09-19T14:00:39;20.00;99.90
25112;DHT22;13092;51.996;4.458;2023-09-19T14:03:07;20.10;99.90
25112;DHT22;13092;51.996;4.458;2023-09-19T14:05:37;20.00;99.90
25112;DHT22;13092;51.996;4.458;2023-09-19T14:08:05;19.80;99.90
25112;DHT22;13092;51.996;4.458;2023-09-19T14:10:34;19.70;99.90
25112;DHT22;13092;51.996;4.458;2023-09-19T14:13:02;19.40;99.90
25112;DHT22;13092;51.996;4.458;2023-09-19T14:15:30;19.20;99.90
25112;DHT22;13092;51.996;4.458;2023-09-19T14:18:00;19.10;99.90
25112;DHT22;13092;51.996;4.458;2023-09-19T14:20:29;19.00;99.90
25112;DHT22;13092;51.996;4.458;2023-09-19T14:22:58;19.20;99.90
25112;DHT22;13092;51.996;4.458;2023-09-19T14:25:28;19.10;99.90
25112;DHT22;13092;51.996;4.458;2023-09-19T14:27:57;19.00;99.90
25112;DHT22;13092;51.996;4.458;2023-09-19T14:30:25;19.00;99.90
25112;DHT22;13092;51.996;4.458;2023-09-19T14:32:54;19.00;99.90
25112;DHT22;13092;51.996;4.458;2023-09-19T14:35:24;19.00;99.90
25112;DHT22;13092;51.996;4.458;2023-09-19T14:37:53;19.10;99.90
25112;DHT22;13092;51.996;4.458;2023-09-19T14:40:22;19.10;99.90
25112;DHT22;13092;51.996;4.458;2023-09-19T14:42:50;19.10;99.90
25112;DHT22;13092;51.996;4.458;2023-09-19T14:45:18;19.10;99.90
25112;DHT22;13092;51.996;4.458;2023-09-19T14:47:47;19.30;99.90
25112;DHT22;13092;51.996;4.458;2023-09-19T14:50:15;19.30;99.90
25112;DHT22;13092;51.996;4.458;2023-09-19T14:52:45;19.40;99.90
25112;DHT22;13092;51.996;4.458;2023-09-19T14:55:14;19.40;99.90
25112;DHT22;13092;51.996;4.458;2023-09-19T14:57:42;19.50;99.90
25112;DHT22;13092;51.996;4.458;2023-09-19T15:00:13;19.50;99.90
25112;DHT22;13092;51.996;4.458;2023-09-19T15:02:42;19.40;99.90
25112;DHT22;13092;51.996;4.458;2023-09-19T15:05:13;19.40;99.90
25112;DHT22;13092;51.996;4.458;2023-09-19T15:07:47;19.40;99.90
25112;DHT22;13092;51.996;4.458;2023-09-19T15:10:15;19.40;99.90
25112;DHT22;13092;51.996;4.458;2023-09-19T15:12:45;19.40;99.90
25112;DHT22;13092;51.996;4.458;2023-09-19T15:15:13;19.50;99.90
25112;DHT22;13092;51.996;4.458;2023-09-19T15:17:42;19.40;99.90
25112;DHT22;13092;51.996;4.458;2023-09-19T15:20:11;19.50;99.90
25112;DHT22;13092;51.996;4.458;2023-09-19T15:22:41;19.50;99.90
25112;DHT22;13092;51.996;4.458;2023-09-19T15:25:11;19.60;99.90
25112;DHT22;13092;51.996;4.458;2023-09-19T15:27:39;19.50;99.90
25112;DHT22;13092;51.996;4.458;2023-09-19T15:30:09;19.60;99.90
25112;DHT22;13092;51.996;4.458;2023-09-19T15:32:37;19.50;99.90
25112;DHT22;13092;51.996;4.458;2023-09-19T15:35:06;19.50;99.90
25112;DHT22;13092;51.996;4.458;2023-09-19T15:37:36;19.40;99.90
25112;DHT22;13092;51.996;4.458;2023-09-19T15:40:06;19.30;99.90
25112;DHT22;13092;51.996;4.458;2023-09-19T15:42:38;19.30;99.90
25112;DHT22;13092;51.996;4.458;2023-09-19T15:45:07;19.20;99.90
25112;DHT22;13092;51.996;4.458;2023-09-19T15:47:37;19.20;99.90
25112;DHT22;13092;51.996;4.458;2023-09-19T15:50:06;19.10;99.90
25112;DHT22;13092;51.996;4.458;2023-09-19T15:52:36;19.00;99.90
25112;DHT22;13092;51.996;4.458;2023-09-19T15:55:05;19.00;99.90
25112;DHT22;13092;51.996;4.458;2023-09-19T15:57:34;19.00;99.90
25112;DHT22;13092;51.996;4.458;2023-09-19T16:00:04;19.00;99.90
25112;DHT22;13092;51.996;4.458;2023-09-19T16:02:37;19.00;99.90